Time;durP1;ratioP1;P1;durP2;ratioP2;P2;SDS_P1;SDS_P2;PMS_P1;PMS_P2;Temp;Humidity;BMP_temperature;BMP_pressure;BME280_temperature;BME280_humidity;BME280_pressure;Samples;Min_cycle;Max_cycle;Signal;HPM_P1;HPM_P2
2022/08/16 00:00:46;154307.00;0.51;267.23;0.00;0.00;0.62;;;;;22.10;1.00;;;;;;2260500;61;1473;-83
2022/08/16 00:03:23;131617.00;0.44;228.12;0.00;0.00;0.62;;;;;22.00;1.00;;;;;;2263128;61;1326;-85
2022/08/16 00:05:57;165112.00;0.55;285.85;0.00;0.00;0.62;;;;;22.00;1.00;;;;;;2263129;61;1604;-85
2022/08/16 00:08:30;52956.00;0.18;92.30;0.00;0.00;0.62;;;;;22.00;1.00;;;;;;2263566;61;1159;-85
2022/08/16 00:11:00;431855.00;1.44;744.58;0.00;0.00;0.62;;;;;21.70;1.00;;;;;;2263998;61;2013;-86
2022/08/16 00:13:32;102172.00;0.34;177.32;0.00;0.00;0.62;;;;;21.60;1.00;;;;;;2260652;61;1627;-87
2022/08/16 00:16:05;118580.00;0.40;205.63;0.00;0.00;0.62;;;;;21.80;1.00;;;;;;2264141;61;1381;-87
2022/08/16 00:18:36;214280.00;0.71;370.50;0.00;0.00;0.62;;;;;22.10;1.00;;;;;;2263204;61;1130;-85
2022/08/16 00:21:07;469688.00;1.57;809.65;2852.00;0.01;5.56;;;;;21.90;1.00;;;;;;2263654;61;1559;-85
2022/08/16 00:23:36;230393.00;0.77;398.22;0.00;0.00;0.62;;;;;21.80;1.00;;;;;;2263805;61;1705;-86
2022/08/16 00:26:07;299717.00;1.00;517.43;1338.00;0.00;2.94;;;;;21.80;1.00;;;;;;2263940;61;1622;-85
2022/08/16 00:28:36;268003.00;0.89;462.91;26567.00;0.09;46.64;;;;;21.80;1.00;;;;;;2264121;61;1560;-86
2022/08/16 00:31:04;279607.00;0.93;482.86;0.00;0.00;0.62;;;;;21.90;1.00;;;;;;2263743;61;1948;-85
2022/08/16 00:33:36;304954.00;1.02;526.44;62262.00;0.21;108.39;;;;;21.90;1.00;;;;;;2263754;61;1619;-84
2022/08/16 00:36:07;226142.00;0.75;390.91;0.00;0.00;0.62;;;;;21.90;1.00;;;;;;2264404;61;1784;-88
2022/08/16 00:38:37;346078.00;1.15;597.12;43985.00;0.15;76.78;;;;;22.00;1.00;;;;;;2264723;61;1096;-88
2022/08/16 00:41:06;464017.00;1.55;799.90;0.00;0.00;0.62;;;;;22.10;1.00;;;;;;2260909;61;1858;-84
2022/08/16 00:43:39;179431.00;0.60;310.51;0.00;0.00;0.62;;;;;22.20;1.00;;;;;;2264058;61;1233;-85
2022/08/16 00:46:13;314050.00;1.05;542.07;32065.00;0.11;56.16;;;;;22.30;1.00;;;;;;2264050;61;1659;-85
2022/08/16 00:48:50;213329.00;0.71;368.86;58111.00;0.19;101.21;;;;;22.50;1.00;;;;;;2263553;61;1390;-85
2022/08/16 00:51:24;321689.00;1.07;555.20;68533.00;0.23;119.23;;;;;22.60;1.00;;;;;;2264072;61;1118;-86
2022/08/16 00:53:54;224694.00;0.75;388.42;0.00;0.00;0.62;;;;;22.50;1.00;;;;;;2263622;61;1055;-83
2022/08/16 00:56:28;188818.00;0.63;326.67;0.00;0.00;0.62;;;;;22.50;1.00;;;;;;2261117;61;1333;-87
2022/08/16 00:58:58;152226.00;0.51;263.64;0.00;0.00;0.62;;;;;22.80;1.00;;;;;;2264698;61;1087;-87
2022/08/16 01:01:32;288001.00;0.96;497.29;0.00;0.00;0.62;;;;;22.80;1.00;;;;;;2264074;61;1606;-85
2022/08/16 01:04:07;183026.00;0.61;316.70;4007.00;0.01;7.56;;;;;22.70;1.00;;;;;;2260427;61;1081;-85
2022/08/16 01:06:46;180931.00;0.60;313.09;0.00;0.00;0.62;;;;;22.60;1.00;;;;;;2263566;61;1527;-85
2022/08/16 01:09:17;42291.00;0.14;73.85;0.00;0.00;0.62;;;;;22.50;1.00;;;;;;2260326;61;1906;-85
2022/08/16 01:11:50;288270.00;0.96;497.76;66952.00;0.22;116.49;;;;;22.50;1.00;;;;;;2263741;61;1138;-86
2022/08/16 01:14:22;395735.00;1.32;682.47;104253.00;0.35;180.91;;;;;22.50;1.00;;;;;;2264576;61;1665;-86
2022/08/16 01:16:54;372229.00;1.24;642.07;68618.00;0.23;119.37;;;;;22.40;1.00;;;;;;2263692;61;1651;-83
2022/08/16 01:19:39;418261.00;1.39;721.20;64570.00;0.22;112.38;;;;;22.60;1.00;;;;;;2263521;61;1822;-85
2022/08/16 01:22:18;405607.00;1.35;699.44;0.00;0.00;0.62;;;;;22.50;1.00;;;;;;2263689;61;1601;-85
2022/08/16 01:24:54;581500.00;1.94;1002.29;21774.00;0.07;38.34;;;;;22.20;1.00;;;;;;2263513;61;1549;-85
2022/08/16 01:27:28;612214.00;2.04;1055.31;9152.00;0.03;16.48;;;;;21.90;1.00;;;;;;2263772;61;1680;-85
2022/08/16 01:30:07;676259.00;2.25;1166.09;0.00;0.00;0.62;;;;;22.10;1.00;;;;;;2263533;61;2017;-84
2022/08/16 01:32:41;700833.00;2.34;1208.68;17043.00;0.06;30.15;;;;;21.90;1.00;;;;;;2263451;61;1172;-86
2022/08/16 01:35:16;458018.00;1.53;789.58;2519.00;0.01;4.99;;;;;21.80;1.00;;;;;;2263410;61;1715;-86
2022/08/16 01:37:49;210550.00;0.70;364.08;0.00;0.00;0.62;;;;;21.50;1.00;;;;;;2263166;61;1718;-86
2022/08/16 01:40:22;55145.00;0.18;96.08;0.00;0.00;0.62;;;;;21.90;1.00;;;;;;2263694;61;953;-86
2022/08/16 01:42:51;459066.00;1.53;791.38;1654.00;0.01;3.49;;;;;22.00;1.00;;;;;;2263394;61;1821;-84
2022/08/16 01:45:24;177477.00;0.59;307.14;39375.00;0.13;68.81;;;;;22.20;1.00;;;;;;2263439;61;1621;-85
2022/08/16 01:47:56;309710.00;1.03;534.61;34103.00;0.11;59.68;;;;;22.10;1.00;;;;;;2263557;61;1731;-85
2022/08/16 01:50:24;243758.00;0.81;421.22;38174.00;0.13;66.73;;;;;22.20;1.00;;;;;;2263435;61;2002;-85
2022/08/16 01:52:55;316622.00;1.06;546.49;28258.00;0.09;49.57;;;;;22.30;1.00;;;;;;2263264;61;1722;-84
2022/08/16 01:55:30;220213.00;0.73;380.71;57145.00;0.19;99.54;;;;;22.10;1.00;;;;;;2263071;61;1823;-84
2022/08/16 01:58:02;212642.00;0.71;367.68;0.00;0.00;0.62;;;;;22.20;1.00;;;;;;2262974;61;1380;-85
2022/08/16 02:00:34;302351.00;1.01;521.96;0.00;0.00;0.62;;;;;22.00;1.00;;;;;;2263268;61;1680;-85
2022/08/16 02:03:03;209936.00;0.70;363.03;0.00;0.00;0.62;;;;;21.90;1.00;;;;;;2263419;61;1815;-85
2022/08/16 02:05:35;231228.00;0.77;399.66;0.00;0.00;0.62;;;;;21.80;1.00;;;;;;2263249;61;1643;-86
2022/08/16 02:08:04;295430.00;0.98;510.06;41482.00;0.14;72.45;;;;;21.60;1.00;;;;;;2263156;61;1739;-84
2022/08/16 02:10:38;235573.00;0.79;407.14;20971.00;0.07;36.95;;;;;21.90;1.00;;;;;;2263286;61;2014;-85
2022/08/16 02:13:13;209581.00;0.70;362.41;34355.00;0.11;60.12;;;;;22.10;1.00;;;;;;2263602;61;1101;-85
2022/08/16 02:15:44;191763.00;0.64;331.74;0.00;0.00;0.62;;;;;21.90;1.00;;;;;;2263759;61;2372;-85
2022/08/16 02:18:16;313655.00;1.05;541.39;592.00;0.00;1.65;;;;;21.90;1.00;;;;;;2263606;61;1679;-85
2022/08/16 02:20:52;137567.00;0.46;238.38;0.00;0.00;0.62;;;;;21.90;1.00;;;;;;2263290;61;1336;-86
2022/08/16 02:23:21;220978.00;0.74;382.03;32583.00;0.11;57.05;;;;;22.00;1.00;;;;;;2263581;61;2027;-85
2022/08/16 02:25:55;287467.00;0.96;496.37;58331.00;0.19;101.59;;;;;21.80;1.00;;;;;;2263184;61;1798;-84
2022/08/16 02:28:25;437437.00;1.46;754.17;36498.00;0.12;63.83;;;;;21.80;1.00;;;;;;2263821;61;1821;-86
2022/08/16 02:30:59;349258.00;1.16;602.59;0.00;0.00;0.62;;;;;21.80;1.00;;;;;;2263509;61;2017;-85
2022/08/16 02:33:30;163838.00;0.55;283.65;0.00;0.00;0.62;;;;;21.50;1.00;;;;;;2264094;61;1191;-86
2022/08/16 02:36:00;375416.00;1.25;647.55;29567.00;0.10;51.83;;;;;21.30;1.00;;;;;;2264190;61;1416;-86
2022/08/16 02:38:31;135678.00;0.45;235.12;0.00;0.00;0.62;;;;;21.20;1.00;;;;;;2263896;61;1135;-85
2022/08/16 02:41:05;293929.00;0.98;507.48;5790.00;0.02;10.65;;;;;21.20;1.00;;;;;;2263504;61;1405;-86
2022/08/16 02:43:37;180033.00;0.60;311.55;0.00;0.00;0.62;;;;;21.30;1.00;;;;;;2263317;61;1649;-85
2022/08/16 02:46:08;311967.00;1.04;538.49;10579.00;0.04;18.95;;;;;21.50;1.00;;;;;;2263281;61;1783;-84
2022/08/16 02:48:42;495425.00;1.65;853.95;119298.00;0.40;206.87;;;;;21.30;1.00;;;;;;2264170;61;1696;-85
2022/08/16 02:51:16;373095.00;1.24;643.56;86633.00;0.29;150.49;;;;;21.20;1.00;;;;;;2263280;61;1940;-84
2022/08/16 02:53:49;172741.00;0.58;298.99;79076.00;0.26;137.44;;;;;21.30;1.00;;;;;;2263476;61;879;-85
2022/08/16 02:56:19;443027.00;1.48;763.79;97423.00;0.32;169.12;;;;;21.30;1.00;;;;;;2263273;61;1582;-85
2022/08/16 02:58:51;567821.00;1.89;978.69;68819.00;0.23;119.72;;;;;21.00;1.00;;;;;;2260658;61;1589;-85
2022/08/16 03:01:25;801598.00;2.67;1383.91;144301.00;0.48;249.98;;;;;21.00;1.00;;;;;;2264300;61;1572;-87
2022/08/16 03:03:58;521959.00;1.74;899.64;0.00;0.00;0.62;;;;;21.20;1.00;;;;;;2263785;61;1802;-86
2022/08/16 03:06:26;394966.00;1.32;681.15;24398.00;0.08;42.89;;;;;21.20;1.00;;;;;;2263333;61;1501;-85
2022/08/16 03:08:58;786903.00;2.62;1358.29;7334.00;0.02;13.33;;;;;21.20;1.00;;;;;;2263132;61;1371;-85
2022/08/16 03:11:34;493903.00;1.65;851.33;0.00;0.00;0.62;;;;;21.30;1.00;;;;;;2263979;61;2002;-87
2022/08/16 03:14:02;476399.00;1.59;821.20;91114.00;0.30;158.23;;;;;21.30;1.00;;;;;;2264209;61;1619;-84
2022/08/16 03:16:32;232212.00;0.77;401.35;0.00;0.00;0.62;;;;;21.30;1.00;;;;;;2263110;61;1565;-85
2022/08/16 03:19:02;324764.00;1.08;560.49;0.00;0.00;0.62;;;;;21.30;1.00;;;;;;2263396;61;1574;-85
2022/08/16 03:21:32;288631.00;0.96;498.38;47829.00;0.16;83.43;;;;;21.40;1.00;;;;;;2263513;61;1175;-85
2022/08/16 03:24:02;256848.00;0.86;443.73;0.00;0.00;0.62;;;;;21.40;1.00;;;;;;2263247;61;1576;-84
2022/08/16 03:26:39;22019.00;0.07;38.77;0.00;0.00;0.62;;;;;21.40;1.00;;;;;;2263166;61;1372;-85
2022/08/16 03:29:10;209338.00;0.70;362.00;0.00;0.00;0.62;;;;;21.30;1.00;;;;;;2263260;61;1214;-86
2022/08/16 03:31:38;138996.00;0.46;240.84;0.00;0.00;0.62;;;;;21.10;1.00;;;;;;2263300;61;2033;-86
2022/08/16 03:34:10;199620.00;0.67;345.27;51451.00;0.17;89.70;;;;;21.10;1.00;;;;;;2263617;61;1913;-85
2022/08/16 03:36:40;196043.00;0.65;339.11;72494.00;0.24;126.07;;;;;21.10;1.00;;;;;;2263166;61;1713;-85
2022/08/16 03:39:11;455707.00;1.52;785.60;36537.00;0.12;63.90;;;;;21.00;1.00;;;;;;2259724;61;1615;-86
2022/08/16 03:41:46;269894.00;0.90;466.16;0.00;0.00;0.62;;;;;20.90;1.00;;;;;;2263173;61;1366;-84
2022/08/16 03:44:16;275028.00;0.92;474.99;0.00;0.00;0.62;;;;;21.10;1.00;;;;;;2264014;61;1559;-86
2022/08/16 03:46:50;267793.00;0.89;462.55;0.00;0.00;0.62;;;;;21.10;1.00;;;;;;2264163;61;1593;-86
2022/08/16 03:49:18;172934.00;0.58;299.32;0.00;0.00;0.62;;;;;20.90;1.00;;;;;;2264280;61;1521;-85
2022/08/16 03:51:54;123605.00;0.41;214.30;0.00;0.00;0.62;;;;;20.70;1.00;;;;;;2263833;61;1944;-86
2022/08/16 03:54:24;211315.00;0.70;365.40;0.00;0.00;0.62;;;;;20.70;1.00;;;;;;2263242;61;1178;-85
2022/08/16 03:56:56;246214.00;0.82;425.44;0.00;0.00;0.62;;;;;20.60;1.00;;;;;;2263013;61;1543;-86
2022/08/16 03:59:28;362369.00;1.21;625.12;0.00;0.00;0.62;;;;;20.50;1.00;;;;;;2263305;61;1562;-85
2022/08/16 04:01:57;176721.00;0.59;305.84;0.00;0.00;0.62;;;;;20.80;1.00;;;;;;2263515;61;1113;-84
2022/08/16 04:04:26;270362.00;0.90;466.97;0.00;0.00;0.62;;;;;21.10;1.00;;;;;;2263466;61;1660;-85
2022/08/16 04:06:55;295304.00;0.98;509.85;579.00;0.00;1.62;;;;;21.20;1.00;;;;;;2263487;61;1607;-85
2022/08/16 04:09:23;233554.00;0.78;403.66;54600.00;0.18;95.14;;;;;21.10;1.00;;;;;;2263282;61;1630;-85
2022/08/16 04:11:54;195769.00;0.65;338.64;0.00;0.00;0.62;;;;;21.00;1.00;;;;;;2263371;61;2017;-86
2022/08/16 04:14:23;121113312.00;403.71;71968256.00;63701.00;0.21;110.87;;;;;20.90;1.00;;;;;;2263343;61;1666;-85
2022/08/16 04:16:50;248614.00;0.83;429.57;0.00;0.00;0.62;;;;;20.90;1.00;;;;;;2263146;61;1605;-84
2022/08/16 04:19:19;562738.00;1.88;969.92;56122.00;0.19;97.77;;;;;20.50;1.00;;;;;;2263444;61;1528;-85
2022/08/16 04:21:47;204568.00;0.68;353.79;75395.00;0.25;131.08;;;;;20.30;1.00;;;;;;2262928;61;1596;-84
2022/08/16 04:24:17;84613.00;0.28;147.00;0.00;0.00;0.62;;;;;20.20;1.00;;;;;;2263455;61;1122;-85
2022/08/16 04:26:51;215350.00;0.72;372.34;18123.00;0.06;32.02;;;;;20.40;1.00;;;;;;2263314;61;1606;-87
2022/08/16 04:29:22;249652.00;0.83;431.35;0.00;0.00;0.62;;;;;20.60;1.00;;;;;;2263140;61;1569;-85
2022/08/16 04:31:54;350908.00;1.17;605.42;35940.00;0.12;62.86;;;;;20.70;1.00;;;;;;2263016;61;2004;-85
2022/08/16 04:34:25;314173.00;1.05;542.28;63926.00;0.21;111.26;;;;;21.00;1.00;;;;;;2262983;61;1634;-85
2022/08/16 04:36:57;431458.00;1.44;743.89;89672.00;0.30;155.74;;;;;21.10;1.00;;;;;;2263211;61;1388;-85
2022/08/16 04:39:29;205504.00;0.69;355.40;69101.00;0.23;120.21;;;;;21.10;1.00;;;;;;2263224;61;1476;-85
2022/08/16 04:41:58;422025.00;1.41;727.67;69070.00;0.23;120.15;;;;;21.20;1.00;;;;;;2263275;61;878;-86
2022/08/16 04:44:28;593760.00;1.98;1023.45;111640.00;0.37;193.66;;;;;21.20;1.00;;;;;;2262855;61;1327;-85
2022/08/16 04:46:57;529728.00;1.77;913.02;66803.00;0.22;116.24;;;;;21.10;1.00;;;;;;2263280;61;1610;-85
2022/08/16 04:49:29;433241.00;1.44;746.96;69970.00;0.23;121.71;;;;;21.00;1.00;;;;;;2263394;61;1616;-86
2022/08/16 04:51:57;319223.00;1.06;550.96;66136.00;0.22;115.08;;;;;20.90;1.00;;;;;;2263562;61;2005;-85
2022/08/16 04:54:24;439312.00;1.46;757.40;135792.00;0.45;235.32;;;;;20.90;1.00;;;;;;2263928;61;1607;-86
2022/08/16 04:56:51;657795.00;2.19;1134.12;169983.00;0.57;294.24;;;;;21.00;1.00;;;;;;2263792;61;1625;-88
2022/08/16 04:59:19;514287.00;1.71;886.43;119892.00;0.40;207.90;;;;;21.30;1.00;;;;;;2409950;40;3669;-85
2022/08/16 05:01:55;1739872.00;5.80;3103.16;145879.00;0.49;252.70;;;;;21.30;1.00;;;;;;2289608;41;3666;-85
2022/08/16 05:04:23;126107504.00;420.36;81252696.00;73044.00;0.24;127.02;;;;;21.30;1.00;;;;;;2260239;61;1228;-88
2022/08/16 05:09:25;543359.00;1.81;936.51;81582.00;0.27;141.77;;;;;21.50;1.00;;;;;;2380364;40;2089;-85
2022/08/16 05:11:53;639255.00;2.13;1102.05;71022.00;0.24;123.53;;;;;21.80;1.00;;;;;;2260360;61;2138;-85
2022/08/16 05:14:21;769368.00;2.56;1327.75;96156.00;0.32;166.94;;;;;21.90;1.00;;;;;;2260505;61;1769;-85
2022/08/16 05:16:52;837010.00;2.79;1445.75;113234.00;0.38;196.41;;;;;21.80;1.00;;;;;;2260301;61;2015;-85
2022/08/16 05:19:19;707888.00;2.36;1220.92;66437.00;0.22;115.60;;;;;21.90;1.00;;;;;;2260573;61;1248;-86
2022/08/16 05:24:20;1755169.00;5.85;3133.13;5274.00;0.02;9.76;;;;;22.20;1.00;;;;;;2262940;61;1326;-86
2022/08/16 05:26:50;721982.00;2.41;1245.38;99680.00;0.33;173.02;;;;;22.00;1.00;;;;;;2260899;61;1194;-85
2022/08/16 05:29:18;552932.00;1.84;953.01;84058.00;0.28;146.05;;;;;21.90;1.00;;;;;;2260511;61;1643;-86
2022/08/16 05:31:45;504911.00;1.68;870.28;55956.00;0.19;97.49;;;;;21.90;1.00;;;;;;2357829;40;3639;-85
2022/08/16 05:34:14;632916.00;2.11;1091.09;106182.00;0.35;184.24;;;;;21.70;1.00;;;;;;2264456;61;1148;-85
2022/08/16 05:39:09;1721931.00;5.74;3068.12;31433.00;0.10;55.06;;;;;22.80;1.00;;;;;;2261941;61;1388;-85
2022/08/16 05:41:39;594926.00;1.98;1025.46;76984.00;0.26;133.83;;;;;23.90;1.00;;;;;;2260255;61;1730;-85
2022/08/16 05:46:44;403857.00;1.35;696.44;0.00;0.00;0.62;;;;;26.60;1.00;;;;;;2384072;40;2229;-85
2022/08/16 05:49:15;407165.00;1.36;702.12;0.00;0.00;0.62;;;;;28.00;1.00;;;;;;2264193;61;1231;-86
2022/08/16 05:51:44;252771.00;0.84;436.72;0.00;0.00;0.62;;;;;29.10;1.00;;;;;;2374629;40;3708;-86
2022/08/16 05:54:13;202050.00;0.67;349.45;2667.00;0.01;5.24;;;;;29.30;1.00;;;;;;2264375;61;1137;-85
2022/08/16 05:56:41;173263.00;0.58;299.89;59394.00;0.20;103.43;;;;;29.60;1.00;;;;;;2264337;61;1297;-85
2022/08/16 05:59:09;255741.00;0.85;441.82;75559.00;0.25;131.37;;;;;30.20;1.00;;;;;;2264411;61;1145;-85
2022/08/16 06:01:36;297880.00;0.99;514.28;52467.00;0.17;91.45;;;;;30.50;1.00;;;;;;2264364;61;1048;-85
2022/08/16 06:04:05;348081.00;1.16;600.56;55042.00;0.18;95.91;;;;;31.60;1.00;;;;;;2264370;61;1669;-86
2022/08/16 06:06:34;187379.00;0.62;324.20;0.00;0.00;0.62;;;;;32.40;1.00;;;;;;2264411;61;1746;-86
2022/08/16 06:09:01;249931.00;0.83;431.83;69035.00;0.23;120.09;;;;;32.80;1.00;;;;;;2351759;40;3908;-85
2022/08/16 06:11:29;158677.00;0.53;274.76;0.00;0.00;0.62;;;;;33.20;1.00;;;;;;2264335;61;1912;-86
2022/08/16 06:13:56;269435.00;0.90;465.37;67785.00;0.23;117.93;;;;;33.50;1.00;;;;;;2278778;56;3710;-85
2022/08/16 06:18:59;125974160.00;419.91;80994984.00;0.00;0.00;0.62;;;;;33.90;1.00;;;;;;2297855;41;2241;-86
2022/08/16 06:21:26;336190.00;1.12;580.13;42674.00;0.14;74.51;;;;;34.40;1.00;;;;;;2294687;40;3780;-85
2022/08/16 06:23:55;221546.00;0.74;383.00;81105.00;0.27;140.95;;;;;34.80;1.00;;;;;;2264203;61;1129;-84
2022/08/16 06:26:25;663904.00;2.21;1144.70;68427.00;0.23;119.04;;;;;35.00;1.00;;;;;;2272765;41;3645;-86
2022/08/16 06:28:52;280495.00;0.93;484.39;0.00;0.00;0.62;;;;;34.90;1.00;;;;;;2296457;40;3716;-84
2022/08/16 06:31:19;1254497.00;4.18;2189.07;85517.00;0.29;148.57;;;;;34.60;1.00;;;;;;2264199;61;1911;-84
2022/08/16 06:33:46;317981.00;1.06;548.83;0.00;0.00;0.62;;;;;35.00;1.00;;;;;;2264113;61;1766;-84
2022/08/16 06:36:15;323931.00;1.08;559.05;0.00;0.00;0.62;;;;;35.00;1.00;;;;;;2264054;61;1573;-85
2022/08/16 06:38:43;264634.00;0.88;457.12;0.00;0.00;0.62;;;;;34.90;1.00;;;;;;2276117;56;3814;-86
2022/08/16 06:41:12;355472.00;1.18;613.27;43400.00;0.14;75.77;;;;;35.30;1.00;;;;;;2281615;40;3605;-85
2022/08/16 06:43:40;250808.00;0.84;433.34;0.00;0.00;0.62;;;;;35.90;1.00;;;;;;2263948;61;1778;-86
2022/08/16 06:46:20;144132.00;0.48;249.69;0.00;0.00;0.62;;;;;36.50;1.00;;;;;;2264071;61;1632;-87
2022/08/16 06:48:48;288601.00;0.96;498.32;11857.00;0.04;21.17;;;;;36.00;1.00;;;;;;2264089;61;1150;-87
2022/08/16 06:51:15;348364.00;1.16;601.05;0.00;0.00;0.62;;;;;35.30;1.00;;;;;;2299817;56;3792;-88
2022/08/16 06:53:43;370815.00;1.24;639.64;74724.00;0.25;129.92;;;;;35.60;1.00;;;;;;2264205;61;889;-87
2022/08/16 06:58:45;1256738.00;4.19;2193.15;0.00;0.00;0.62;;;;;36.20;1.00;;;;;;2261814;61;1416;-86
2022/08/16 07:01:12;443578.00;1.48;764.74;31252.00;0.10;54.75;;;;;36.50;1.00;;;;;;2286255;41;3646;-86
2022/08/16 07:03:40;184587.00;0.62;319.39;55770.00;0.19;97.16;;;;;36.60;1.00;;;;;;2264029;61;1527;-86
2022/08/16 07:11:19;1240018.00;4.13;2162.74;12821.00;0.04;22.84;;;;;36.70;1.00;;;;;;2268771;40;3392;-85
2022/08/16 07:13:49;345848.00;1.15;596.72;34323.00;0.11;60.07;;;;;37.00;1.00;;;;;;2265105;56;3774;-86
2022/08/16 07:16:17;122014.00;0.41;211.56;0.00;0.00;0.62;;;;;36.70;1.00;;;;;;2264049;61;1635;-86
2022/08/16 07:18:45;530686.00;1.77;914.67;69658.00;0.23;121.17;;;;;37.00;1.00;;;;;;2263939;61;1620;-87
2022/08/16 07:23:43;1385267.00;4.62;2429.03;337.00;0.00;1.20;;;;;38.20;1.00;;;;;;2261697;61;1434;-87
2022/08/16 07:26:15;276470.00;0.92;477.47;0.00;0.00;0.62;;;;;38.30;1.00;;;;;;2267311;56;3760;-86
2022/08/16 07:28:43;472067.00;1.57;813.75;119159.00;0.40;206.63;;;;;37.70;1.00;;;;;;2263963;61;1816;-85
2022/08/16 07:31:13;254115.00;0.85;439.03;73855.00;0.25;128.42;;;;;37.70;1.00;;;;;;2264033;61;2016;-85
2022/08/16 07:33:50;338379.00;1.13;583.89;51676.00;0.17;90.08;;;;;38.20;1.00;;;;;;2263870;61;1567;-86
2022/08/16 07:36:21;259261.00;0.86;447.88;0.00;0.00;0.62;;;;;38.20;1.00;;;;;;2264050;61;1584;-86
2022/08/16 07:38:52;238096.00;0.79;411.48;47858.00;0.16;83.48;;;;;38.10;1.00;;;;;;2263779;61;1184;-85
2022/08/16 07:41:24;398607.00;1.33;687.41;2972.00;0.01;5.77;;;;;38.00;1.00;;;;;;2264022;61;1609;-88
2022/08/16 07:43:59;178506.00;0.60;308.92;0.00;0.00;0.62;;;;;37.90;1.00;;;;;;2264084;61;1242;-86
2022/08/16 07:46:31;298582.00;1.00;515.48;50650.00;0.17;88.31;;;;;38.10;1.00;;;;;;2264001;61;1618;-86
2022/08/16 07:49:08;368977.00;1.23;636.48;34026.00;0.11;59.55;;;;;37.80;1.00;;;;;;2276440;56;3758;-85
2022/08/16 07:51:39;457628.00;1.53;788.90;49415.00;0.16;86.17;;;;;37.60;1.00;;;;;;2263856;61;2010;-86
2022/08/16 07:54:10;437320.00;1.46;753.97;100304.00;0.33;174.10;;;;;37.80;1.00;;;;;;2263946;61;1747;-86
2022/08/16 07:56:39;261795.00;0.87;452.24;55148.00;0.18;96.09;;;;;38.10;1.00;;;;;;2260559;61;1496;-86
2022/08/16 07:59:16;444444.00;1.48;766.23;87132.00;0.29;151.36;;;;;38.00;1.00;;;;;;2263926;61;1680;-85
2022/08/16 08:02:02;805005.00;2.68;1389.85;53116.00;0.18;92.57;;;;;37.60;1.00;;;;;;2263931;61;1562;-86
2022/08/16 08:04:33;483674.00;1.61;833.72;0.00;0.00;0.62;;;;;37.60;1.00;;;;;;2263924;61;1266;-85
2022/08/16 08:07:01;596733.00;1.99;1028.58;37666.00;0.13;65.85;;;;;37.90;1.00;;;;;;2263802;61;1484;-87
2022/08/16 08:09:36;418840.00;1.40;722.20;13056.00;0.04;23.24;;;;;38.10;1.00;;;;;;2264122;61;1794;-87
2022/08/16 08:12:08;347771.00;1.16;600.03;0.00;0.00;0.62;;;;;38.20;1.00;;;;;;2263735;61;2004;-87
2022/08/16 08:14:36;192638.00;0.64;333.25;372.00;0.00;1.26;;;;;37.30;1.00;;;;;;2263593;61;1616;-86
2022/08/16 08:17:15;637575.00;2.13;1099.15;49975.00;0.17;87.14;;;;;37.40;1.00;;;;;;2263704;61;1694;-87
2022/08/16 08:19:49;273069.00;0.91;471.62;0.00;0.00;0.62;;;;;37.00;1.00;;;;;;2263829;61;1682;-87
2022/08/16 08:22:21;588318.00;1.96;1014.05;141428.00;0.47;245.03;;;;;37.00;1.00;;;;;;2263533;61;1513;-87
2022/08/16 08:24:49;244145.00;0.81;421.88;0.00;0.00;0.62;;;;;36.80;1.00;;;;;;2263730;61;1743;-86
2022/08/16 08:27:19;512278.00;1.71;882.97;32683.00;0.11;57.23;;;;;37.00;1.00;;;;;;2263811;61;1598;-85
2022/08/16 08:29:49;244304.00;0.81;422.15;33842.00;0.11;59.23;;;;;37.00;1.00;;;;;;2263764;61;1314;-87
2022/08/16 08:32:29;539398.00;1.80;929.69;254973.00;0.85;440.50;;;;;36.80;1.00;;;;;;2263542;61;1994;-86
2022/08/16 08:35:01;173637.00;0.58;300.53;0.00;0.00;0.62;;;;;36.40;1.00;;;;;;2263643;61;1583;-85
2022/08/16 08:37:29;222893.00;0.74;385.32;0.00;0.00;0.62;;;;;36.30;1.00;;;;;;2263821;61;1585;-86
2022/08/16 08:40:05;213841.00;0.71;369.75;0.00;0.00;0.62;;;;;36.60;1.00;;;;;;2263729;61;1969;-86
2022/08/16 08:42:39;178187.00;0.59;308.37;0.00;0.00;0.62;;;;;36.90;1.00;;;;;;2264494;61;1974;-85
2022/08/16 08:45:16;137338.00;0.46;237.98;0.00;0.00;0.62;;;;;36.10;1.00;;;;;;2264387;61;1390;-84
2022/08/16 08:47:49;183850.00;0.61;318.12;0.00;0.00;0.62;;;;;36.40;1.00;;;;;;2260755;61;1664;-84
2022/08/16 08:50:20;236047.00;0.79;407.95;0.00;0.00;0.62;;;;;36.10;1.00;;;;;;2264558;61;1246;-85
2022/08/16 08:52:53;248669.00;0.83;429.66;0.00;0.00;0.62;;;;;35.30;1.00;;;;;;2264149;61;2013;-85
2022/08/16 08:55:25;222662.00;0.74;384.92;0.00;0.00;0.62;;;;;34.90;1.00;;;;;;2263463;61;1757;-84
2022/08/16 08:57:56;320983.00;1.07;553.99;90759.00;0.30;157.62;;;;;34.90;1.00;;;;;;2263476;61;1143;-85
2022/08/16 09:00:28;345049.00;1.15;595.35;65341.00;0.22;113.71;;;;;34.50;1.00;;;;;;2264121;61;1733;-85
2022/08/16 09:03:04;335107.00;1.12;578.26;56870.00;0.19;99.07;;;;;34.00;1.00;;;;;;2264279;61;1128;-85
2022/08/16 09:08:19;183658.00;0.61;317.79;0.00;0.00;0.62;;;;;33.60;1.00;;;;;;2264239;61;1626;-84
2022/08/16 09:10:50;537034.00;1.79;925.61;52890.00;0.18;92.18;;;;;33.60;1.00;;;;;;2264384;61;1638;-86
2022/08/16 09:13:19;476620.00;1.59;821.58;81154.00;0.27;141.03;;;;;33.70;1.00;;;;;;2264433;61;1933;-85
2022/08/16 09:15:57;409196.00;1.36;705.61;7113.00;0.02;12.95;;;;;33.10;1.00;;;;;;2264438;61;1447;-84
2022/08/16 09:18:42;375077.00;1.25;646.96;39082.00;0.13;68.30;;;;;32.90;1.00;;;;;;2264583;61;1191;-86
2022/08/16 09:21:13;59870.00;0.20;104.25;0.00;0.00;0.62;;;;;32.80;1.00;;;;;;2261147;61;1747;-86
2022/08/16 09:23:43;242684.00;0.81;419.37;0.00;0.00;0.62;;;;;33.40;1.00;;;;;;2264481;61;1751;-85
2022/08/16 09:26:14;315326.00;1.05;544.26;0.00;0.00;0.62;;;;;33.60;1.00;;;;;;2264127;61;2730;-85
2022/08/16 09:28:47;113892.00;0.38;197.55;0.00;0.00;0.62;;;;;33.30;1.00;;;;;;2264418;61;1251;-86
2022/08/16 09:31:19;398923.00;1.33;687.95;116880.00;0.39;202.70;;;;;33.10;1.00;;;;;;2264276;61;1657;-86
2022/08/16 09:33:49;81159.00;0.27;141.04;0.00;0.00;0.62;;;;;33.30;1.00;;;;;;2260423;61;2011;-86
2022/08/16 09:36:16;147093.00;0.49;254.80;0.00;0.00;0.62;;;;;33.10;1.00;;;;;;2264180;61;1620;-86
2022/08/16 09:38:44;76631.00;0.26;133.22;0.00;0.00;0.62;;;;;33.10;1.00;;;;;;2263703;61;1135;-86
2022/08/16 09:41:11;0.00;0.00;0.62;0.00;0.00;0.62;;;;;33.00;1.00;;;;;;2263919;61;1125;-86
2022/08/16 09:43:38;23999.00;0.08;42.19;0.00;0.00;0.62;;;;;32.90;1.00;;;;;;2264242;61;1660;-85
2022/08/16 09:46:07;30447.00;0.10;53.36;0.00;0.00;0.62;;;;;32.70;1.00;;;;;;2263650;61;1291;-85
2022/08/16 09:48:36;68597.00;0.23;119.34;0.00;0.00;0.62;;;;;32.90;1.00;;;;;;2263768;61;1039;-85
2022/08/16 09:51:04;0.00;0.00;0.62;0.00;0.00;0.62;;;;;32.30;1.00;;;;;;2264172;61;1102;-85
2022/08/16 09:53:31;65741.00;0.22;114.40;0.00;0.00;0.62;;;;;31.70;1.00;;;;;;2263482;61;1923;-86
2022/08/16 09:56:00;300611.00;1.00;518.97;84203.00;0.28;146.30;;;;;32.00;1.00;;;;;;2263209;61;1276;-85
2022/08/16 09:58:28;47446.00;0.16;82.77;0.00;0.00;0.62;;;;;32.00;1.00;;;;;;2263686;61;1206;-87
2022/08/16 10:00:55;328366.00;1.09;566.68;0.00;0.00;0.62;;;;;31.20;1.00;;;;;;2264327;61;905;-86
2022/08/16 10:03:22;193614.00;0.65;334.93;50789.00;0.17;88.55;;;;;31.30;1.00;;;;;;2264199;61;1707;-86
2022/08/16 10:05:51;268989.00;0.90;464.61;0.00;0.00;0.62;;;;;31.80;1.00;;;;;;2264434;61;1376;-87
2022/08/16 10:08:20;313427.00;1.04;541.00;41642.00;0.14;72.73;;;;;32.00;1.00;;;;;;2264524;61;1091;-88
2022/08/16 10:13:27;205408.00;0.68;355.23;48462.00;0.16;84.53;;;;;32.20;1.00;;;;;;2264068;61;1986;-86
2022/08/16 10:15:58;51899.00;0.17;90.47;0.00;0.00;0.62;;;;;32.10;1.00;;;;;;2264446;61;1496;-86
2022/08/16 10:18:28;77911.00;0.26;135.43;0.00;0.00;0.62;;;;;32.30;1.00;;;;;;2264419;61;1136;-86
2022/08/16 10:20:57;0.00;0.00;0.62;0.00;0.00;0.62;;;;;32.80;1.00;;;;;;2264481;61;1085;-86
2022/08/16 10:23:25;197056.00;0.66;340.86;0.00;0.00;0.62;;;;;32.80;1.00;;;;;;2264356;61;1167;-86